createdAt,value
2022-08-03T00:01:38.559Z,50.92
2022-08-03T00:04:40.634Z,50.71
2022-08-03T00:07:42.711Z,50.85
2022-08-03T00:10:46.430Z,50.92
2022-08-03T00:13:48.708Z,51.17
2022-08-03T00:16:50.784Z,51.12
2022-08-03T00:19:52.830Z,51.19
2022-08-03T00:22:54.932Z,51.16
2022-08-03T00:25:57.170Z,50.94
2022-08-03T00:28:59.240Z,51.11
2022-08-03T00:32:01.285Z,51.40
2022-08-03T00:35:08.025Z,51.14
2022-08-03T00:38:11.932Z,51.14
2022-08-03T00:41:15.746Z,50.98
2022-08-03T00:44:17.845Z,51.00
2022-08-03T00:47:19.908Z,50.95
2022-08-03T00:50:23.581Z,50.92
2022-08-03T00:53:27.002Z,50.73
2022-08-03T00:56:29.145Z,51.04
2022-08-03T00:59:31.559Z,51.21
2022-08-03T01:02:33.837Z,51.13
2022-08-03T01:05:50.345Z,51.26
2022-08-03T01:09:02.708Z,51.12
2022-08-03T01:12:15.514Z,51.50
2022-08-03T01:15:32.547Z,51.56
2022-08-03T01:18:47.236Z,51.55
2022-08-03T01:22:07.154Z,51.71
2022-08-03T01:25:44.011Z,51.67
2022-08-03T01:28:50.982Z,51.86
2022-08-03T01:32:59.657Z,51.96
2022-08-03T01:35:42.271Z,51.99
2022-08-03T01:38:49.353Z,52.11
2022-08-03T01:41:59.449Z,52.04
2022-08-03T01:45:03.241Z,52.07
2022-08-03T01:48:06.673Z,52.39
2022-08-03T01:51:10.316Z,52.24
2022-08-03T01:54:13.493Z,52.37
2022-08-03T01:57:17.061Z,52.42
2022-08-03T02:00:19.614Z,52.80
2022-08-03T02:03:23.792Z,52.89
2022-08-03T02:06:59.754Z,52.63
2022-08-03T02:09:52.355Z,52.54
2022-08-03T02:12:55.381Z,52.50
2022-08-03T02:15:58.949Z,52.57
2022-08-03T02:19:04.469Z,52.41
2022-08-03T02:22:10.293Z,52.59
2022-08-03T02:25:14.708Z,52.75
2022-08-03T02:28:29.368Z,52.46
2022-08-03T02:31:36.946Z,52.78
2022-08-03T02:34:41.995Z,52.67
2022-08-03T02:37:49.562Z,52.67
2022-08-03T02:40:55.269Z,52.69
2022-08-03T02:44:05.999Z,52.75
2022-08-03T02:47:11.687Z,52.61
2022-08-03T02:50:17.021Z,52.56
2022-08-03T02:53:21.261Z,52.73
2022-08-03T02:56:27.160Z,52.75
2022-08-03T02:59:31.246Z,52.88
2022-08-03T03:02:34.261Z,52.69
2022-08-03T03:05:56.276Z,52.72
2022-08-03T03:09:00.136Z,53.19
2022-08-03T03:12:04.192Z,52.84
2022-08-03T03:15:06.760Z,53.16
2022-08-03T03:18:10.178Z,52.85
2022-08-03T03:21:14.357Z,52.96
2022-08-03T03:24:17.271Z,53.05
2022-08-03T03:27:19.441Z,52.94
2022-08-03T03:30:23.271Z,52.83
2022-08-03T03:33:28.233Z,52.78
2022-08-03T03:36:30.653Z,53.13
2022-08-03T03:39:32.714Z,53.01
2022-08-03T03:42:35.040Z,53.02
2022-08-03T03:45:37.558Z,52.94
2022-08-03T03:48:39.872Z,53.01
2022-08-03T03:51:43.093Z,53.27
2022-08-03T03:54:46.054Z,53.33
2022-08-03T03:57:48.119Z,53.20
2022-08-03T04:00:53.751Z,53.36
2022-08-03T04:03:55.979Z,53.18
2022-08-03T04:07:16.640Z,53.33
2022-08-03T04:10:44.012Z,53.26
2022-08-03T04:14:10.913Z,53.41
2022-08-03T04:17:15.152Z,53.43
2022-08-03T04:20:19.653Z,53.37
2022-08-03T04:23:24.947Z,53.53
2022-08-03T04:26:30.053Z,53.31
2022-08-03T04:29:35.544Z,53.36
2022-08-03T04:32:45.721Z,53.47
2022-08-03T04:36:01.376Z,53.81
2022-08-03T04:39:12.090Z,54.01
2022-08-03T04:42:15.089Z,53.86
2022-08-03T04:45:19.184Z,53.84
2022-08-03T04:48:21.539Z,54.52
2022-08-03T04:51:24.567Z,54.81
2022-08-03T04:54:26.996Z,54.13
2022-08-03T04:57:29.110Z,53.39
2022-08-03T05:00:31.722Z,53.78
2022-08-03T05:03:33.825Z,53.71
2022-08-03T05:06:36.037Z,53.00
2022-08-03T05:09:52.318Z,54.93
2022-08-03T05:12:55.024Z,55.50
2022-08-03T05:15:57.359Z,56.06
2022-08-03T05:18:59.399Z,55.94
2022-08-03T05:22:01.732Z,55.71
2022-08-03T05:25:04.821Z,56.68
2022-08-03T05:28:06.880Z,57.13
2022-08-03T05:31:08.979Z,57.83
2022-08-03T05:34:11.237Z,57.78
2022-08-03T05:37:13.465Z,57.25
2022-08-03T05:40:15.560Z,57.26
2022-08-03T05:43:17.679Z,56.48
2022-08-03T05:46:20.736Z,56.46
2022-08-03T05:49:23.250Z,56.69
2022-08-03T05:52:25.488Z,56.97
2022-08-03T05:55:27.963Z,56.96
2022-08-03T05:58:30.744Z,55.78
2022-08-03T06:01:35.603Z,55.31
2022-08-03T06:04:38.034Z,55.37
2022-08-03T06:07:40.236Z,55.26
2022-08-03T06:10:42.415Z,55.17
2022-08-03T06:13:45.195Z,55.39
2022-08-03T06:16:47.266Z,54.39
2022-08-03T06:19:51.638Z,53.78
2022-08-03T06:23:00.119Z,53.69
2022-08-03T06:26:03.754Z,53.65
2022-08-03T06:29:05.988Z,53.84
2022-08-03T06:32:10.808Z,53.88
2022-08-03T06:35:13.913Z,53.52
2022-08-03T06:38:15.968Z,53.56
2022-08-03T06:41:18.128Z,53.58
2022-08-03T06:44:20.341Z,53.32
2022-08-03T06:47:22.479Z,53.16
2022-08-03T06:50:26.338Z,52.70
2022-08-03T06:53:28.654Z,52.40
2022-08-03T06:56:30.822Z,52.62
2022-08-03T07:00:08.075Z,52.19
2022-08-03T07:02:58.300Z,52.40
2022-08-03T07:06:00.928Z,52.18
2022-08-03T07:09:03.442Z,52.33
2022-08-03T07:12:06.608Z,52.16
2022-08-03T07:15:09.193Z,51.18
2022-08-03T07:18:29.289Z,51.84
2022-08-03T07:21:32.416Z,52.01
2022-08-03T07:24:34.659Z,51.53
2022-08-03T07:27:38.325Z,50.67
2022-08-03T07:30:40.481Z,50.76
2022-08-03T07:33:42.720Z,50.59
2022-08-03T07:36:44.840Z,50.94
2022-08-03T07:39:48.110Z,50.82
2022-08-03T07:42:52.203Z,51.02
2022-08-03T07:45:55.742Z,50.70
2022-08-03T07:48:57.886Z,50.79
2022-08-03T07:52:19.001Z,50.60
2022-08-03T07:55:23.267Z,50.21
2022-08-03T07:58:25.388Z,50.01
2022-08-03T08:01:27.580Z,49.89
2022-08-03T08:04:30.175Z,49.72
2022-08-03T08:07:32.341Z,49.66
2022-08-03T08:10:35.159Z,49.50
2022-08-03T08:13:40.079Z,49.37
2022-08-03T08:16:42.490Z,49.46
2022-08-03T08:19:51.703Z,49.50
2022-08-03T08:23:01.224Z,49.32
2022-08-03T08:26:03.970Z,49.35
2022-08-03T08:29:07.016Z,49.32
2022-08-03T08:32:11.171Z,49.31
2022-08-03T08:35:13.888Z,49.40
2022-08-03T08:38:16.064Z,49.60
2022-08-03T08:41:18.441Z,49.65
2022-08-03T08:44:20.694Z,49.47
2022-08-03T08:47:26.087Z,49.45
2022-08-03T08:50:29.704Z,49.40
2022-08-03T08:53:35.728Z,49.49
2022-08-03T08:56:38.859Z,49.47
2022-08-03T08:59:47.834Z,49.53
2022-08-03T09:02:50.812Z,50.20
2022-08-03T09:05:56.156Z,50.74
2022-08-03T09:09:09.789Z,51.30
2022-08-03T09:12:41.830Z,50.81
2022-08-03T09:15:59.079Z,50.65
2022-08-03T09:19:13.901Z,50.18
2022-08-03T09:22:18.666Z,50.10
2022-08-03T09:25:27.528Z,49.89
2022-08-03T09:29:00.545Z,49.69
2022-08-03T09:32:02.882Z,49.60
2022-08-03T09:35:05.535Z,50.03
2022-08-03T09:38:15.875Z,49.63
2022-08-03T09:41:19.707Z,49.80
2022-08-03T09:44:38.252Z,49.82
2022-08-03T09:47:45.156Z,49.76
2022-08-03T09:50:58.449Z,49.96
2022-08-03T09:54:32.552Z,50.02
2022-08-03T09:57:34.753Z,50.08
2022-08-03T10:00:55.002Z,50.11
2022-08-03T10:04:04.505Z,50.09
2022-08-03T10:07:09.732Z,50.16
2022-08-03T10:10:31.765Z,50.25
2022-08-03T10:13:34.749Z,50.27
2022-08-03T10:16:38.561Z,50.26
2022-08-03T10:19:43.566Z,50.30
2022-08-03T10:22:47.456Z,50.32
2022-08-03T10:25:54.683Z,50.33
2022-08-03T10:28:59.694Z,50.28
2022-08-03T10:32:07.783Z,50.32
2022-08-03T10:35:20.245Z,50.30
2022-08-03T10:38:32.654Z,50.39
2022-08-03T10:41:40.434Z,50.50
2022-08-03T10:44:43.108Z,50.50
2022-08-03T10:47:49.648Z,50.58
2022-08-03T10:50:52.556Z,50.59
2022-08-03T10:53:55.774Z,50.65
2022-08-03T10:57:16.926Z,50.60
2022-08-03T11:00:25.308Z,50.61
2022-08-03T11:03:27.746Z,50.62
2022-08-03T11:06:37.147Z,50.66
2022-08-03T11:09:44.819Z,50.68
2022-08-03T11:12:47.247Z,50.70
2022-08-03T11:15:53.440Z,50.62
2022-08-03T11:19:11.374Z,50.59
2022-08-03T11:22:15.572Z,50.56
2022-08-03T11:25:54.428Z,50.52
2022-08-03T11:28:41.347Z,50.49
2022-08-03T11:31:51.942Z,50.47
2022-08-03T11:35:10.296Z,50.40
2022-08-03T11:38:12.527Z,50.37
2022-08-03T11:41:44.827Z,50.33
2022-08-03T11:44:47.620Z,50.27
2022-08-03T11:47:53.738Z,50.31
2022-08-03T11:50:56.621Z,50.21
2022-08-03T11:53:59.864Z,50.06
2022-08-03T11:57:02.021Z,50.03
2022-08-03T12:00:23.948Z,49.91
2022-08-03T12:03:33.647Z,49.86
2022-08-03T12:06:54.898Z,49.78
2022-08-03T12:10:14.309Z,49.73
2022-08-03T12:14:05.754Z,49.64
2022-08-03T12:16:47.863Z,49.68
2022-08-03T12:19:50.052Z,49.69
2022-08-03T12:22:52.409Z,49.62
2022-08-03T12:26:02.858Z,49.51
2022-08-03T12:29:05.137Z,49.25
2022-08-03T12:32:07.318Z,49.30
2022-08-03T12:35:10.227Z,49.18
2022-08-03T12:38:13.025Z,47.48
2022-08-03T12:41:16.695Z,48.06
2022-08-03T12:44:19.001Z,48.72
2022-08-03T12:47:21.354Z,48.98
2022-08-03T12:50:32.056Z,49.19
2022-08-03T12:53:35.521Z,49.44
2022-08-03T12:57:15.882Z,49.50
2022-08-03T13:00:28.933Z,49.51
2022-08-03T13:03:50.443Z,49.73
2022-08-03T13:07:04.351Z,49.77
2022-08-03T13:10:08.249Z,49.71
2022-08-03T13:13:10.788Z,49.73
2022-08-03T13:16:18.765Z,49.62
2022-08-03T13:19:21.334Z,49.34
2022-08-03T13:22:27.273Z,49.66
2022-08-03T13:25:29.444Z,49.85
2022-08-03T13:28:31.568Z,49.79
2022-08-03T13:31:33.796Z,49.32
2022-08-03T13:34:36.786Z,49.28
2022-08-03T13:37:39.076Z,49.14
2022-08-03T13:40:41.739Z,49.05
2022-08-03T13:43:44.197Z,48.99
2022-08-03T13:46:46.946Z,48.82
2022-08-03T13:50:00.385Z,49.44
2022-08-03T13:53:04.467Z,49.85
2022-08-03T13:56:06.510Z,49.82
2022-08-03T13:59:08.592Z,49.72
2022-08-03T14:02:10.749Z,49.84
2022-08-03T14:05:12.823Z,49.76
2022-08-03T14:08:14.898Z,49.85
2022-08-03T14:11:20.044Z,49.39
2022-08-03T14:14:22.179Z,49.34
2022-08-03T14:17:24.361Z,49.60
2022-08-03T14:20:37.773Z,49.64
2022-08-03T14:23:42.007Z,49.82
2022-08-03T14:26:44.192Z,49.95
2022-08-03T14:29:46.244Z,50.11
2022-08-03T14:32:48.393Z,50.49
2022-08-03T14:35:51.758Z,50.51
2022-08-03T14:39:01.163Z,50.60
2022-08-03T14:42:03.622Z,51.01
2022-08-03T14:45:09.645Z,50.61
2022-08-03T14:50:33.447Z,50.21
2022-08-03T14:51:51.470Z,49.68
2022-08-03T14:54:56.342Z,49.50
2022-08-03T14:57:58.493Z,49.08
2022-08-03T15:01:00.556Z,49.07
2022-08-03T15:04:02.626Z,48.99
2022-08-03T15:07:04.932Z,49.36
2022-08-03T15:10:08.692Z,49.44
2022-08-03T15:13:10.759Z,49.34
2022-08-03T15:16:12.948Z,49.48
2022-08-03T15:20:01.241Z,49.58
2022-08-03T15:22:40.418Z,49.59
2022-08-03T15:26:32.174Z,49.64
2022-08-03T15:29:05.617Z,49.66
2022-08-03T15:32:09.579Z,49.80
2022-08-03T15:35:11.815Z,49.76
2022-08-03T15:38:14.144Z,49.86
2022-08-03T15:41:16.751Z,49.91
2022-08-03T15:44:20.602Z,50.01
2022-08-03T15:47:23.787Z,50.02
2022-08-03T15:50:25.883Z,49.98
2022-08-03T15:53:27.973Z,49.95
2022-08-03T15:56:30.259Z,49.94
2022-08-03T15:59:32.323Z,49.84
2022-08-03T16:02:34.900Z,49.82
2022-08-03T16:05:37.130Z,50.08
2022-08-03T16:08:39.393Z,49.96
2022-08-03T16:11:41.552Z,49.89
2022-08-03T16:14:52.381Z,49.92
2022-08-03T16:17:55.408Z,49.85
2022-08-03T16:21:01.064Z,49.88
2022-08-03T16:24:03.682Z,49.86
2022-08-03T16:27:17.374Z,49.79
2022-08-03T16:30:32.511Z,49.75
2022-08-03T16:33:35.667Z,49.73
2022-08-03T16:36:37.799Z,49.61
2022-08-03T16:39:39.966Z,50.09
2022-08-03T16:42:42.182Z,50.31
2022-08-03T16:45:44.448Z,50.36
2022-08-03T16:48:46.503Z,50.44
2022-08-03T16:51:50.340Z,50.53
2022-08-03T16:54:54.020Z,50.54
2022-08-03T16:57:59.900Z,50.53
2022-08-03T17:01:10.930Z,50.08
2022-08-03T17:04:23.425Z,49.66
2022-08-03T17:07:25.814Z,49.60
2022-08-03T17:10:31.919Z,49.60
2022-08-03T17:13:39.148Z,49.66
2022-08-03T17:16:52.487Z,49.79
2022-08-03T17:19:57.782Z,50.18
2022-08-03T17:23:19.235Z,50.33
2022-08-03T17:26:39.272Z,50.45
2022-08-03T17:29:48.872Z,50.39
2022-08-03T17:32:52.741Z,50.52
2022-08-03T17:35:59.909Z,50.58
2022-08-03T17:39:04.720Z,50.70
2022-08-03T17:42:29.417Z,50.75
2022-08-03T17:45:52.077Z,50.82
2022-08-03T17:48:54.704Z,50.85
2022-08-03T17:52:03.573Z,50.69
2022-08-03T17:55:54.864Z,50.81
2022-08-03T17:59:01.457Z,50.57
2022-08-03T18:03:07.079Z,50.78
2022-08-03T18:10:04.424Z,50.60
2022-08-03T18:13:13.996Z,50.64
2022-08-03T18:16:33.452Z,50.72
2022-08-03T18:20:02.184Z,50.83
2022-08-03T18:23:04.515Z,50.88
2022-08-03T18:26:12.580Z,51.12
2022-08-03T18:29:15.523Z,50.88
2022-08-03T18:32:18.639Z,50.96
2022-08-03T18:35:24.696Z,50.89
2022-08-03T18:38:29.510Z,50.99
2022-08-03T18:41:34.798Z,50.92
2022-08-03T18:44:52.937Z,51.35
2022-08-03T18:48:06.706Z,51.02
2022-08-03T18:51:24.159Z,51.15
2022-08-03T18:54:58.972Z,51.21
2022-08-03T18:58:22.895Z,51.33
2022-08-03T19:02:00.768Z,48.21
2022-08-03T19:05:10.608Z,48.31
2022-08-03T19:08:21.631Z,47.76
2022-08-03T19:12:22.473Z,48.62
2022-08-03T19:15:05.878Z,48.91
2022-08-03T19:18:17.828Z,49.21
2022-08-03T19:21:20.351Z,49.75
2022-08-03T19:24:26.200Z,50.06
2022-08-03T19:27:30.835Z,50.39
2022-08-03T19:30:40.017Z,50.30
2022-08-03T19:33:56.627Z,50.58
2022-08-03T19:37:00.475Z,50.74
2022-08-03T19:40:02.746Z,50.87
2022-08-03T19:43:16.813Z,48.80
2022-08-03T19:46:20.889Z,50.11
2022-08-03T19:50:05.379Z,50.02
2022-08-03T19:52:52.617Z,50.18
2022-08-03T19:55:58.891Z,50.26
2022-08-03T19:59:03.795Z,50.44
2022-08-03T20:02:25.650Z,48.03
2022-08-03T20:05:29.876Z,48.45
2022-08-03T20:12:11.648Z,47.76
2022-08-03T20:15:18.157Z,48.42
2022-08-03T20:18:24.760Z,49.44
2022-08-03T20:21:31.988Z,49.02
2022-08-03T20:24:35.244Z,49.54
2022-08-03T20:28:07.156Z,49.72
2022-08-03T20:31:12.807Z,49.31
2022-08-03T20:34:17.550Z,49.18
2022-08-03T20:37:19.800Z,48.18
2022-08-03T20:40:23.536Z,48.67
2022-08-03T20:43:30.138Z,48.86
2022-08-03T20:46:41.695Z,48.42
2022-08-03T20:49:54.975Z,48.22
2022-08-03T20:52:58.199Z,48.21
2022-08-03T20:56:05.179Z,47.97
2022-08-03T20:59:14.987Z,47.25
2022-08-03T21:02:19.889Z,47.20
2022-08-03T21:05:48.219Z,47.12
2022-08-03T21:09:00.233Z,47.05
2022-08-03T21:12:09.074Z,47.49
2022-08-03T21:13:04.252Z,50.72
2022-08-03T21:13:09.393Z,48.49
2022-08-03T21:15:59.638Z,47.48
2022-08-03T21:18:42.619Z,47.96
2022-08-03T21:21:46.523Z,47.93
2022-08-03T21:24:54.276Z,47.76
2022-08-03T21:27:59.170Z,47.89
2022-08-03T21:31:01.998Z,47.67
2022-08-03T21:34:05.487Z,47.57
2022-08-03T21:37:07.717Z,47.38
2022-08-03T21:40:12.587Z,47.64
2022-08-03T21:43:14.936Z,47.27
2022-08-03T21:46:19.813Z,47.80
2022-08-03T21:50:07.377Z,47.38
2022-08-03T21:52:48.186Z,47.00
2022-08-03T21:56:07.983Z,47.45
2022-08-03T21:59:17.542Z,48.27
2022-08-03T22:02:27.228Z,47.48
2022-08-03T22:05:43.660Z,47.50
2022-08-03T22:08:47.738Z,47.22
2022-08-03T22:11:53.978Z,47.02
2022-08-03T22:15:00.831Z,47.54
2022-08-03T22:18:05.012Z,47.52
2022-08-03T22:21:09.799Z,47.74
2022-08-03T22:24:11.942Z,47.78
2022-08-03T22:27:31.387Z,47.64
2022-08-03T22:30:33.955Z,47.44
2022-08-03T22:33:37.759Z,47.70
2022-08-03T22:36:41.062Z,47.79
2022-08-03T22:39:44.336Z,48.27
2022-08-03T22:42:49.420Z,48.46
2022-08-03T22:46:08.902Z,48.41
2022-08-03T22:49:14.582Z,48.44
2022-08-03T22:52:17.802Z,48.53
2022-08-03T22:55:24.831Z,48.41
2022-08-03T22:58:27.419Z,48.47
2022-08-03T23:01:32.438Z,48.44
2022-08-03T23:04:37.853Z,48.53
2022-08-03T23:07:40.643Z,48.41
2022-08-03T23:10:46.962Z,48.55
2022-08-03T23:13:54.097Z,48.47
2022-08-03T23:16:57.480Z,48.28
2022-08-03T23:20:07.266Z,48.37
2022-08-03T23:23:10.683Z,48.40
2022-08-03T23:26:16.974Z,48.47
2022-08-03T23:29:21.619Z,48.50
2022-08-03T23:32:26.531Z,48.43
2022-08-03T23:36:29.114Z,48.36
2022-08-03T23:39:11.043Z,47.92
2022-08-03T23:42:18.683Z,48.08
2022-08-03T23:45:21.704Z,47.73
2022-08-03T23:48:24.493Z,47.99
2022-08-03T23:51:38.469Z,47.79
2022-08-03T23:55:16.379Z,48.16
2022-08-03T23:58:27.521Z,48.12
